• Join FlightAware (Why Join?)
  • Login
  • US Flag 
10:32PM EST


 

Airport Tracker/Info


-or-


 

Live Flight TrackerFlight Track Log ✈ DAL1034 ✈ 28-Aug-2013 ✈ KATL - KPBI

Flight Track Log - Related Links

Times and Time Zones

All times are in EDT time to prevent confusion due to time zone crossing. See the DAL1034 flight status page for this flight to view local times or setup timezone preferences in your user account.

Time Position Orientation Groundspeed Altitude Reporting Facility
EDT Latitude Longitude Course Direction KTS MPH feet Rate Location/Type
03:30PM 33.6333 -84.4833 164° South 183 211 2,400  Level Atlanta TRACON
03:31PM 33.6333 -84.5667 270° West 254 292 3,800 1,920 Climbing Atlanta TRACON
03:32PM 33.3681 -84.2628 168° South  Level FlightAware Approximate
03:32PM 33.6333 -84.6333 270° West 272 313 6,100  Level Atlanta TRACON
03:33PM 33.2486 -84.2329 168° South  Level FlightAware Approximate
03:33PM 33.5667 -84.7000 220° Southwest 299 344 8,900  Level Atlanta TRACON
03:34PM 33.1291 -84.2030 168° South  Level FlightAware Approximate
03:34PM 33.4833 -84.6833 171° South 314 361 10,000  Level Atlanta TRACON
03:35PM 33.0096 -84.1754 164° South  Level FlightAware Approximate
03:35PM 33.3608 -84.6433 165° South 364 419 10,100  Level Atlanta Center
03:36PM 33.2881 -84.5458 132° Southeast 376 433 12,400 2,100 Climbing Atlanta Center
03:37PM 33.2111 -84.4533 135° Southeast 387 445 14,400 2,040 Climbing Atlanta Center
03:38PM 33.1322 -84.3514 133° Southeast 400 460 16,500 1,800 Climbing Atlanta Center
03:39PM 33.0447 -84.2394 133° Southeast 410 472 18,000 1,740 Climbing Atlanta Center
03:40PM 32.9550 -84.1600 143° Southeast 421 484 20,000 1,560 Climbing Atlanta Center
03:41PM 32.8361 -84.1106 161° South 432 497 21,200 1,140 Climbing Atlanta Center
03:42PM 32.7150 -84.0586 160° South 453 521 22,300 1,140 Climbing Atlanta Center
03:43PM 32.5919 -84.0067 160° South 465 535 23,500 1,020 Climbing Atlanta Center
03:44PM 32.4647 -83.9575 162° South 476 548 24,400 1,020 Climbing Atlanta Center
03:45PM 32.3350 -83.9036 161° South 488 562 25,600 1,320 Climbing Atlanta Center
03:46PM 32.1972 -83.8475 161° South 488 562 27,100 1,560 Climbing Atlanta Center
03:47PM 32.0719 -83.7936 160° South 483 556 28,800 1,500 Climbing Atlanta Center
03:48PM 31.9486 -83.7428 161° South 483 556 30,100 1,140 Climbing Atlanta Center
03:49PM 31.8111 -83.6822 159° South 460 529 31,300 780 Climbing Jacksonville Center
03:50PM 31.6861 -83.6372 163° South 460 529 31,900 660 Climbing Jacksonville Center
03:51PM 31.5717 -83.5875 160° South 490 564 32,700 540 Climbing Jacksonville Center
03:52PM 31.4508 -83.5428 162° South 478 550 33,000 120 Climbing Jacksonville Center
03:53PM 31.3300 -83.4933 161° South 465 535 33,000  Level Jacksonville Center
03:54PM 31.2069 -83.4464 162° South 465 535 33,000  Level Jacksonville Center
03:55PM 31.0839 -83.3972 161° South 465 535 33,000  Level Jacksonville Center
03:56PM 30.9653 -83.3506 161° South 465 535 33,000  Level Jacksonville Center
03:57PM 30.8464 -83.3014 160° South 460 529 33,000  Level Jacksonville Center
03:58PM 30.7169 -83.2453 160° South 455 524 33,000  Level Jacksonville Center
03:59PM 30.5981 -83.1869 157° South 455 524 33,000  Level Jacksonville Center
04:00PM 30.4833 -83.1289 156° South 460 529 33,000  Level Jacksonville Center
04:01PM 30.3644 -83.0683 156° South 460 529 33,000  Level Jacksonville Center
04:02PM 30.2497 -83.0128 157° South 453 521 33,000  Level Jacksonville Center
04:03PM 30.1328 -82.9525 156° South 453 521 33,000  Level Jacksonville Center
04:04PM 30.0222 -82.8972 157° South 453 521 33,000  Level Jacksonville Center
04:05PM 29.9053 -82.8422 158° South 453 521 33,000  Level Jacksonville Center
04:06PM 29.8031 -82.7944 158° South 453 521 33,000  Level Jacksonville Center
04:07PM 29.6881 -82.7444 159° South 448 516 33,000  Level Jacksonville Center
04:08PM 29.5608 -82.7444 180° South 439 505 33,000  Level Jacksonville Center
04:09PM 29.4333 -82.7447 180° South 450 518 33,000  Level Jacksonville Center
04:10PM 29.3039 -82.7519 183° South 462 532 33,000  Level Jacksonville Center
04:11PM 29.1789 -82.7569 182° South 462 532 33,000  Level Jacksonville Center
04:12PM 29.0494 -82.7619 182° South 462 532 33,000 -60 Level Jacksonville Center
04:13PM 28.9219 -82.7669 182° South 462 532 32,900  Descending Jacksonville Center
04:14PM 28.7928 -82.7742 183° South 462 532 33,000  Climbing Jacksonville Center
04:15PM 28.6653 -82.7814 183° South 462 532 33,000  Level Jacksonville Center
04:16PM 28.5317 -82.7864 182° South 468 539 33,000 -60 Level Jacksonville Center
04:17PM 28.4044 -82.7886 181° South 468 539 32,900  Descending Jacksonville Center
04:19PM 28.1653 -82.7975 182° South 469 540 33,000  Climbing Miami Center
04:20PM 28.0214 -82.7994 181° South 475 547 33,000 -60 Level Miami Center
04:21PM 27.9061 -82.7606 163° South 459 528 32,900  Descending Miami Center
04:22PM 27.8094 -82.6758 142° Southeast 425 489 33,000  Climbing Miami Center
04:23PM 27.7189 -82.5892 140° Southeast 430 495 33,000  Level Miami Center
04:24PM 27.6264 -82.5025 140° Southeast 436 502 33,000  Level Miami Center
04:25PM 27.5439 -82.4233 140° Southeast 436 502 33,000 -660 Level Miami Center
04:26PM 27.4392 -82.3272 141° Southeast 436 502 31,700 -1,560 Descending Miami Center
04:27PM 27.3486 -82.2389 139° Southeast 441 507 29,900 -1,800 Descending Miami Center
04:28PM 27.2558 -82.1503 140° Southeast 441 507 28,100 -2,100 Descending Miami Center
04:29PM 27.1689 -82.0717 141° Southeast 441 507 25,800 -2,040 Descending Miami Center
04:30PM 27.0761 -81.9814 139° Southeast 451 519 24,100 -1,680 Descending Miami Center
04:31PM 27.0158 -81.8575 119° Southeast 417 480 22,500 -1,440 Descending Miami Center
04:32PM 26.9928 -81.7331 102° East 396 456 21,300 -1,260 Descending Miami Center
04:33PM 26.9719 -81.6111 101° East 396 456 20,000 -1,200 Descending Miami Center
04:34PM 26.9525 -81.4983 101° East 403 464 19,000 -1,320 Descending Miami Center
04:35PM 26.9297 -81.3669 101° East 403 464 17,400 -2,040 Descending Miami Center
04:36PM 26.9081 -81.2522 102° East 387 445 15,000 -2,400 Descending Miami Center
04:37PM 26.8886 -81.1372 101° East 376 433 12,700 -2,160 Descending Miami Center
04:38PM 26.8706 -81.0389 102° East 361 415 10,700 -1,380 Descending Miami Center
04:39PM 26.8525 -80.9381 101° East 340 391 10,000 -360 Descending Miami Center
04:40PM 26.8322 -80.8419 103° East 300 345 10,000  Level Miami Center
04:41PM 26.8072 -80.7575 108° East 285 328 10,000 -480 Level Miami Center
04:42PM 26.7844 -80.6728 107° East 285 328 9,100 -1,140 Descending Miami Center
04:43PM 26.7594 -80.5883 108° East 290 334 7,800 -1,200 Descending Miami Center
04:44PM 26.7383 -80.5156 108° East 285 328 6,700 -1,200 Descending Miami Center
04:45PM 26.7133 -80.4289 108° East 274 315 5,500 -1,260 Descending Miami Center
04:46PM 26.6964 -80.3608 106° East 263 303 4,200 -1,260 Descending Miami Center
04:47PM 26.6881 -80.2722 96° East 253 291 3,000 -1,200 Descending Miami Center
04:48PM 26.6850 -80.2164 93° East 221 254 1,900 -1,140 Descending Miami Center